Time;durP1;ratioP1;P1;durP2;ratioP2;P2;SDS_P1;SDS_P2;PMS_P1;PMS_P2;Temp;Humidity;BMP_temperature;BMP_pressure;BME280_temperature;BME280_humidity;BME280_pressure;Samples;Min_cycle;Max_cycle;Signal;HPM_P1;HPM_P2
2023/06/21 04:10:32;;;;;;;12.80;11.15;;;;;;;23.03;67.08;100497.34;5611196;31;75046;-57
2023/06/21 04:13:35;;;;;;;15.57;11.45;;;;;;;23.03;67.08;100497.34;5603125;31;32977;-57
2023/06/21 04:16:38;;;;;;;14.10;11.25;;;;;;;22.59;70.45;100498.41;5601515;31;33618;-57
2023/06/21 04:19:40;;;;;;;17.95;11.57;;;;;;;22.62;67.08;100499.66;5585826;31;33677;-57
2023/06/21 04:22:44;;;;;;;12.30;11.00;;;;;;;22.64;67.34;100495.38;5600846;31;34246;-57
2023/06/21 04:25:47;;;;;;;12.88;11.18;;;;;;;22.79;67.41;100501.16;5603123;31;33659;-57
2023/06/21 04:28:50;;;;;;;15.43;11.60;;;;;;;22.81;66.66;100505.09;5602134;31;31840;-57
2023/06/21 04:31:52;;;;;;;11.85;10.65;;;;;;;22.83;66.80;100515.69;5589220;31;33167;-57
2023/06/21 04:34:55;;;;;;;17.65;11.85;;;;;;;22.90;66.09;100530.28;5587350;31;33556;-57
2023/06/21 04:37:57;;;;;;;14.25;10.48;;;;;;;22.93;66.59;100537.00;5583235;32;33568;-57
2023/06/21 04:40:59;;;;;;;14.13;10.32;;;;;;;22.96;66.54;100544.50;5587671;31;33555;-57
2023/06/21 04:44:02;;;;;;;11.85;10.65;;;;;;;23.01;65.24;100546.91;5592174;31;33621;-60
2023/06/21 04:47:04;;;;;;;14.95;9.90;;;;;;;23.04;65.09;100548.16;5583420;31;33696;-57
2023/06/21 04:50:09;;;;;;;11.70;9.90;;;;;;;23.13;65.29;100554.19;5583139;31;33591;-57
2023/06/21 04:53:28;;;;;;;12.40;10.77;;;;;;;23.19;66.68;100558.22;5573705;32;34163;-57
2023/06/21 04:56:31;;;;;;;12.00;10.80;;;;;;;23.31;64.35;100566.28;5582131;32;33214;-57
2023/06/21 04:59:33;;;;;;;14.73;10.55;;;;;;;23.33;67.19;100572.16;5583254;32;33747;-57
2023/06/21 05:02:35;;;;;;;16.23;10.65;;;;;;;23.38;65.11;100557.41;5579594;31;33116;-56
2023/06/21 05:05:38;;;;;;;15.02;10.32;;;;;;;23.39;66.29;100564.47;5582732;31;33583;-57
2023/06/21 05:08:41;;;;;;;12.23;11.02;;;;;;;23.45;67.22;100566.53;5582630;31;34240;-56
2023/06/21 05:11:43;;;;;;;22.45;11.12;;;;;;;23.50;65.81;100561.91;5582143;31;33766;-56
2023/06/21 05:14:46;;;;;;;11.55;10.25;;;;;;;23.57;65.74;100568.28;5582202;32;34273;-56
2023/06/21 05:17:48;;;;;;;11.88;9.20;;;;;;;23.77;64.29;100554.59;5571204;32;33856;-57
2023/06/21 05:20:51;;;;;;;15.73;10.25;;;;;;;23.91;65.13;100543.91;5557185;32;33625;-56
2023/06/21 05:23:53;;;;;;;16.62;10.77;;;;;;;24.02;62.99;100533.91;5550423;32;33643;-57
2023/06/21 05:26:56;;;;;;;13.35;10.68;;;;;;;24.18;60.55;100536.50;5550211;32;33752;-57
2023/06/21 05:29:58;;;;;;;24.02;11.20;;;;;;;24.21;59.97;100538.50;5550058;32;34305;-56
2023/06/21 05:33:00;;;;;;;16.77;9.73;;;;;;;24.36;60.42;100550.44;5558966;32;33510;-56
2023/06/21 05:36:03;;;;;;;14.30;10.00;;;;;;;24.49;59.77;100559.25;5552983;32;34384;-57
2023/06/21 05:39:06;;;;;;;13.80;9.65;;;;;;;24.53;57.52;100557.34;5549927;32;34259;-56
2023/06/21 05:42:08;;;;;;;16.48;9.85;;;;;;;24.67;58.15;100563.06;5550605;32;34190;-57
2023/06/21 05:45:10;;;;;;;17.10;9.27;;;;;;;24.81;58.58;100565.19;5551859;32;33630;-56
2023/06/21 05:48:14;;;;;;;14.60;9.70;;;;;;;24.91;57.98;100561.00;5567260;32;33831;-56
2023/06/21 05:51:16;;;;;;;11.77;9.95;;;;;;;24.93;57.70;100558.66;5556887;32;34264;-57
2023/06/21 05:54:19;;;;;;;14.07;10.07;;;;;;;25.02;56.34;100564.66;5562932;32;34276;-56
2023/06/21 05:57:21;;;;;;;12.15;9.85;;;;;;;25.09;57.65;100556.50;5549989;32;34372;-56
2023/06/21 06:00:24;;;;;;;12.13;10.02;;;;;;;25.16;56.70;100564.84;5564621;32;33796;-57
2023/06/21 06:03:26;;;;;;;13.85;9.65;;;;;;;25.23;56.70;100551.22;5569112;32;34376;-58
2023/06/21 06:06:37;;;;;;;11.32;9.23;;;;;;;25.35;56.91;100560.34;5568268;32;34261;-56
2023/06/21 06:09:40;;;;;;;16.10;10.40;;;;;;;25.34;55.59;100559.56;5569041;32;34268;-57
2023/06/21 06:12:42;;;;;;;12.82;10.25;;;;;;;25.34;55.29;100554.06;5568663;32;33592;-57
2023/06/21 06:15:45;;;;;;;17.67;10.43;;;;;;;25.41;55.58;100551.41;5565940;32;34181;-57
2023/06/21 06:18:47;;;;;;;20.20;10.80;;;;;;;25.54;55.46;100558.19;5568893;32;33728;-57
2023/06/21 06:21:49;;;;;;;19.30;10.20;;;;;;;25.59;55.52;100556.25;5569064;32;33580;-57
2023/06/21 06:24:52;;;;;;;27.73;11.40;;;;;;;25.65;56.68;100561.03;5568215;32;34866;-57
2023/06/21 06:27:54;;;;;;;16.33;10.52;;;;;;;25.68;55.83;100552.03;5560662;32;33702;-57
2023/06/21 06:30:56;;;;;;;15.18;11.68;;;;;;;25.74;55.49;100563.47;5568902;32;33655;-57
2023/06/21 06:33:59;;;;;;;23.83;10.85;;;;;;;25.79;54.44;100563.09;5568459;32;34408;-57
2023/06/21 06:37:01;;;;;;;24.90;12.70;;;;;;;25.82;55.69;100554.16;5567274;32;33684;-57
2023/06/21 06:40:16;;;;;;;19.87;10.57;;;;;;;25.93;55.03;100560.53;5567250;32;33765;-58
2023/06/21 06:43:18;;;;;;;15.15;10.38;;;;;;;26.01;56.53;100553.91;5565405;32;34345;-57
2023/06/21 06:46:21;;;;;;;154.85;23.75;;;;;;;26.11;55.15;100548.87;5562524;32;33691;-57
2023/06/21 06:49:23;;;;;;;83.22;16.65;;;;;;;26.32;55.37;100546.25;5568772;32;33622;-57
2023/06/21 06:52:26;;;;;;;460.08;39.88;;;;;;;26.32;55.97;100550.97;5568712;32;33573;-57
2023/06/21 06:55:28;;;;;;;61.03;13.90;;;;;;;26.35;56.01;100556.50;5557508;32;33657;-57
2023/06/21 06:58:31;;;;;;;15.93;12.02;;;;;;;26.44;55.90;100556.16;5563126;32;34261;-57
2023/06/21 07:01:34;;;;;;;21.42;12.00;;;;;;;26.55;54.03;100557.03;5568200;32;33597;-57
2023/06/21 07:04:36;;;;;;;16.58;11.68;;;;;;;26.59;55.12;100555.09;5568263;32;33186;-57
2023/06/21 07:07:42;;;;;;;19.42;11.70;;;;;;;26.59;56.20;100554.28;5566907;32;34606;-57
2023/06/21 07:10:45;;;;;;;15.20;13.13;;;;;;;26.70;55.51;100546.91;5568419;32;34323;-57
2023/06/21 07:13:47;;;;;;;18.83;12.63;;;;;;;26.77;54.74;100546.94;5566052;32;33299;-59
2023/06/21 07:16:53;;;;;;;16.17;12.98;;;;;;;26.80;55.15;100557.16;5565692;32;34285;-57
2023/06/21 07:19:55;;;;;;;19.60;12.37;;;;;;;26.82;54.77;100560.31;5565220;32;33377;-58
2023/06/21 07:22:57;;;;;;;14.85;11.60;;;;;;;26.88;55.08;100552.47;5568129;32;34321;-58
2023/06/21 07:26:00;;;;;;;163.32;19.95;;;;;;;26.90;55.06;100547.38;5564645;32;33366;-58
2023/06/21 07:29:02;;;;;;;22.65;12.25;;;;;;;26.93;56.21;100547.41;5568036;32;33677;-58
2023/06/21 07:32:04;;;;;;;22.23;12.57;;;;;;;27.04;55.12;100555.69;5567589;32;33559;-59
2023/06/21 07:35:07;;;;;;;16.27;12.52;;;;;;;27.10;54.49;100554.12;5560864;32;33695;-58
2023/06/21 07:38:10;;;;;;;17.90;12.15;;;;;;;27.20;53.62;100540.81;5565792;32;33398;-58
2023/06/21 07:41:13;;;;;;;45.40;13.50;;;;;;;27.18;53.55;100543.94;5568425;32;33416;-58
2023/06/21 07:44:17;;;;;;;22.37;12.45;;;;;;;27.16;54.81;100546.31;5564412;32;33679;-58
2023/06/21 07:47:20;;;;;;;40.65;13.10;;;;;;;27.22;55.20;100538.44;5547954;32;33643;-58
2023/06/21 07:50:25;;;;;;;17.10;11.45;;;;;;;27.26;55.68;100536.53;5551844;32;33843;-58
2023/06/21 07:53:28;;;;;;;17.05;11.50;;;;;;;27.39;54.19;100537.72;5567964;32;33564;-58
2023/06/21 07:56:33;;;;;;;19.12;11.27;;;;;;;27.46;55.16;100537.72;5564131;32;33723;-58
2023/06/21 07:59:35;;;;;;;16.17;12.18;;;;;;;27.47;55.40;100538.50;5566662;32;34202;-58
2023/06/21 08:02:39;;;;;;;17.83;11.82;;;;;;;27.59;55.71;100535.37;5568370;32;34257;-58
2023/06/21 08:05:41;;;;;;;15.50;11.15;;;;;;;27.71;55.19;100534.19;5566508;32;33386;-58
2023/06/21 08:08:43;;;;;;;17.30;11.65;;;;;;;27.82;54.57;100532.28;5564662;32;33507;-58
2023/06/21 08:11:46;;;;;;;21.27;12.15;;;;;;;27.87;54.67;100532.66;5567681;32;33621;-58
2023/06/21 08:14:48;;;;;;;20.80;12.48;;;;;;;27.83;55.18;100536.59;5568187;32;34347;-58
2023/06/21 08:17:51;;;;;;;21.55;11.75;;;;;;;27.86;54.24;100547.62;5567725;32;33502;-58
2023/06/21 08:20:54;;;;;;;13.88;11.40;;;;;;;27.99;54.39;100544.47;5566940;32;34783;-59
2023/06/21 08:23:57;;;;;;;14.48;12.00;;;;;;;28.06;54.89;100542.47;5566904;32;33847;-58
2023/06/21 08:26:59;;;;;;;14.93;11.25;;;;;;;28.20;52.42;100552.69;5562923;32;34385;-58
2023/06/21 08:30:02;;;;;;;17.98;12.20;;;;;;;28.27;53.15;100549.13;5565102;32;33560;-58
2023/06/21 08:33:04;;;;;;;15.40;11.77;;;;;;;28.25;54.26;100551.53;5564297;32;33662;-59
2023/06/21 08:36:07;;;;;;;16.12;12.02;;;;;;;28.18;53.10;100559.78;5565218;32;33421;-59
2023/06/21 08:39:09;;;;;;;14.35;11.68;;;;;;;28.21;53.01;100562.56;5567179;32;33666;-57
2023/06/21 08:42:11;;;;;;;13.85;12.45;;;;;;;28.14;54.26;100559.00;5548035;32;33641;-57
2023/06/21 08:45:14;;;;;;;14.87;12.48;;;;;;;28.19;53.28;100556.63;5552962;32;34299;-57
2023/06/21 08:48:18;;;;;;;18.55;12.93;;;;;;;28.13;53.55;100560.19;5564166;32;33697;-56
2023/06/21 08:51:21;;;;;;;18.23;13.02;;;;;;;28.00;54.12;100562.56;5564699;32;34265;-57
2023/06/21 08:54:28;;;;;;;17.08;12.30;;;;;;;28.05;55.25;100576.75;5562625;32;33196;-57
2023/06/21 08:57:34;;;;;;;15.73;11.88;;;;;;;28.22;53.74;100571.59;5567740;32;33088;-57
2023/06/21 09:00:44;;;;;;;18.15;11.68;;;;;;;28.25;55.79;100573.56;5568306;32;33604;-58
2023/06/21 09:03:57;;;;;;;15.82;12.10;;;;;;;28.25;54.57;100565.31;5550024;32;33809;-58
2023/06/21 09:07:00;;;;;;;18.70;11.95;;;;;;;28.19;54.51;100575.16;5558454;32;33590;-57
2023/06/21 09:10:04;;;;;;;13.65;12.32;;;;;;;28.18;56.12;100571.63;5556816;32;33688;-57
2023/06/21 09:13:06;;;;;;;15.20;11.63;;;;;;;28.25;54.92;100574.34;5569617;32;33608;-57
2023/06/21 09:16:10;;;;;;;13.23;11.43;;;;;;;28.32;54.29;100565.28;5562483;32;33623;-57
2023/06/21 09:19:14;;;;;;;14.18;11.73;;;;;;;28.39;55.65;100565.28;5562370;32;34335;-57
2023/06/21 09:22:18;;;;;;;12.90;11.32;;;;;;;28.46;55.45;100568.03;5558690;32;33756;-57
2023/06/21 09:25:20;;;;;;;16.10;11.27;;;;;;;28.52;55.01;100566.44;5562508;32;33736;-57
2023/06/21 09:28:23;;;;;;;26.50;11.82;;;;;;;28.53;54.49;100570.78;5562314;32;33365;-57
2023/06/21 09:31:27;;;;;;;23.40;12.50;;;;;;;28.63;55.16;100565.63;5559764;32;33336;-57
2023/06/21 09:34:29;;;;;;;15.95;11.23;;;;;;;28.71;54.58;100570.72;5564239;32;34018;-57
2023/06/21 09:37:38;;;;;;;16.08;11.15;;;;;;;28.83;53.60;100575.00;5569093;32;33533;-57
2023/06/21 09:40:44;;;;;;;15.40;11.45;;;;;;;28.73;55.44;100573.84;5568638;32;33878;-57
2023/06/21 09:43:48;;;;;;;15.32;11.15;;;;;;;28.82;54.25;100578.97;5568842;32;34348;-57
2023/06/21 09:47:02;;;;;;;16.37;12.43;;;;;;;28.74;55.33;100574.62;5567598;32;33246;-57
2023/06/21 09:50:08;;;;;;;16.42;12.60;;;;;;;28.67;55.61;100578.22;5567599;32;33580;-57
2023/06/21 09:53:13;;;;;;;18.52;12.32;;;;;;;28.68;56.34;100584.53;5568927;31;33702;-57
2023/06/21 09:56:20;;;;;;;20.30;12.37;;;;;;;28.72;55.88;100580.56;5563997;32;34337;-57
2023/06/21 09:59:22;;;;;;;15.30;12.55;;;;;;;28.87;56.11;100589.56;5567377;32;33984;-55
2023/06/21 10:02:27;;;;;;;14.50;12.27;;;;;;;28.97;55.81;100579.69;5569238;32;33644;-56
2023/06/21 10:05:30;;;;;;;19.70;12.20;;;;;;;29.04;55.22;100582.47;5567122;31;33901;-56
2023/06/21 10:08:33;;;;;;;16.00;11.80;;;;;;;29.01;55.69;100588.78;5548193;32;34352;-57
2023/06/21 10:11:37;;;;;;;15.70;12.15;;;;;;;28.99;54.80;100583.63;5560383;32;34927;-57
2023/06/21 10:14:41;;;;;;;15.13;11.30;;;;;;;29.00;54.37;100589.94;5567470;32;34742;-56
2023/06/21 10:17:47;;;;;;;15.18;11.07;;;;;;;29.05;54.03;100584.03;5564787;32;34302;-56
2023/06/21 10:21:07;;;;;;;12.43;10.98;;;;;;;29.28;53.10;100589.03;5562536;32;33263;-57
2023/06/21 10:24:13;;;;;;;19.35;11.88;;;;;;;29.33;52.88;100583.06;5568317;32;33698;-56
2023/06/21 10:27:18;;;;;;;15.50;11.05;;;;;;;29.31;52.99;100576.41;5567504;32;33716;-56
2023/06/21 10:30:23;;;;;;;13.23;11.32;;;;;;;29.21;53.02;100580.78;5558527;32;33643;-57
2023/06/21 10:33:30;;;;;;;18.08;11.57;;;;;;;29.19;54.34;100583.16;5549280;32;35747;-56
2023/06/21 10:36:36;;;;;;;12.25;10.73;;;;;;;29.26;53.00;100583.91;5566653;32;33549;-57
2023/06/21 10:39:39;;;;;;;14.20;10.85;;;;;;;29.14;53.61;100589.09;5565253;32;34302;-56
2023/06/21 10:42:43;;;;;;;12.73;11.38;;;;;;;29.07;53.94;100589.13;5564586;32;32934;-56
2023/06/21 10:45:49;;;;;;;13.73;11.73;;;;;;;29.05;55.12;100597.03;5566202;32;33607;-56
2023/06/21 10:48:53;;;;;;;12.75;11.45;;;;;;;29.00;54.94;100601.78;5566642;32;33790;-57
2023/06/21 10:51:57;;;;;;;16.87;12.02;;;;;;;28.95;54.46;100602.16;5566833;32;33558;-57
2023/06/21 10:55:01;;;;;;;17.37;12.00;;;;;;;28.85;55.40;100600.25;5563986;32;33483;-55
2023/06/21 10:58:04;;;;;;;23.30;13.00;;;;;;;28.81;56.22;100607.75;5565500;32;34335;-56
2023/06/21 11:01:06;;;;;;;14.07;12.30;;;;;;;28.77;56.10;100607.75;5558476;32;33714;-58
2023/06/21 11:04:08;;;;;;;18.02;12.55;;;;;;;28.80;56.82;100606.94;5563421;32;33637;-58
2023/06/21 11:07:11;;;;;;;14.82;12.60;;;;;;;28.83;57.46;100599.84;5566026;32;33249;-58
2023/06/21 11:10:13;;;;;;;16.30;12.45;;;;;;;28.78;58.04;100600.28;5566440;32;34366;-58
2023/06/21 11:13:32;;;;;;;18.17;12.68;;;;;;;28.73;58.16;100597.91;5567736;32;33519;-58
2023/06/21 11:16:37;;;;;;;19.27;13.25;;;;;;;28.69;57.63;100599.91;5559439;32;33751;-59
2023/06/21 11:19:39;;;;;;;21.15;13.98;;;;;;;28.66;58.93;100600.69;5559536;32;34390;-58
2023/06/21 11:22:53;;;;;;;17.25;13.02;;;;;;;28.60;59.92;100594.78;5560537;32;33973;-59
2023/06/21 11:26:02;;;;;;;15.55;12.75;;;;;;;28.62;58.52;100594.41;5564766;32;33711;-58
2023/06/21 11:29:13;;;;;;;16.12;13.13;;;;;;;28.66;60.00;100601.47;5565629;32;33878;-58
2023/06/21 11:32:16;;;;;;;21.00;14.05;;;;;;;28.74;59.24;100596.72;5567393;32;34362;-59
2023/06/21 11:35:18;;;;;;;15.90;13.55;;;;;;;28.89;59.03;100592.72;5567547;32;33661;-58
2023/06/21 11:38:21;;;;;;;18.80;13.30;;;;;;;28.93;58.44;100590.72;5567547;32;33754;-58
2023/06/21 11:41:45;;;;;;;19.12;13.07;;;;;;;29.05;58.09;100594.28;5567249;32;33858;-58
2023/06/21 11:44:48;;;;;;;20.27;13.30;;;;;;;29.14;57.82;100587.13;5567161;32;34495;-58
2023/06/21 11:48:02;;;;;;;20.15;13.77;;;;;;;29.15;57.83;100583.19;5567657;32;33762;-58
2023/06/21 11:51:08;;;;;;;;;;;;;;;29.16;57.32;100573.69;5567732;31;33726;-58
2023/06/21 11:54:10;;;;;;;13.43;12.13;;;;;;;29.15;58.12;100574.91;5567326;32;33507;-58
2023/06/21 11:57:13;;;;;;;12.85;11.55;;;;;;;29.27;57.38;100565.34;5564501;32;33583;-58
2023/06/21 12:00:15;;;;;;;18.40;12.25;;;;;;;29.38;56.46;100563.34;5566232;32;34385;-58
2023/06/21 12:03:21;;;;;;;14.80;12.30;;;;;;;29.44;57.24;100564.47;5568109;32;33415;-59
2023/06/21 12:06:24;;;;;;;14.32;12.43;;;;;;;29.50;56.28;100559.28;5567300;32;33651;-58
2023/06/21 12:09:27;;;;;;;14.98;12.50;;;;;;;29.58;56.41;100560.06;5559377;32;33621;-56
2023/06/21 12:12:29;;;;;;;14.38;11.90;;;;;;;29.61;56.05;100554.53;5564320;32;33710;-56
2023/06/21 12:15:32;;;;;;;16.73;11.90;;;;;;;29.69;55.53;100549.72;5567440;32;33588;-55
2023/06/21 12:18:36;;;;;;;15.40;12.63;;;;;;;29.63;55.65;100554.88;5567563;32;33172;-56
2023/06/21 12:21:39;;;;;;;13.27;11.95;;;;;;;29.65;54.76;100554.50;5566928;32;34414;-56
2023/06/21 12:24:41;;;;;;;19.92;12.70;;;;;;;29.66;55.22;100545.00;5560551;32;33727;-55
2023/06/21 12:27:56;;;;;;;17.20;12.70;;;;;;;29.70;54.37;100535.50;5564499;32;33376;-56
2023/06/21 12:31:00;;;;;;;18.92;13.10;;;;;;;29.77;54.20;100542.97;5559046;32;33652;-56
2023/06/21 12:34:03;;;;;;;16.67;12.40;;;;;;;29.87;54.78;100544.84;5566453;32;34461;-57
2023/06/21 12:37:05;;;;;;;14.27;12.77;;;;;;;29.90;53.61;100549.56;5570013;32;34414;-56
2023/06/21 12:40:08;;;;;;;14.77;12.43;;;;;;;29.92;54.45;100547.16;5568506;32;34383;-57
2023/06/21 12:43:10;;;;;;;15.77;12.13;;;;;;;29.98;54.52;100550.28;5568474;32;33795;-56
2023/06/21 12:46:13;;;;;;;15.35;12.35;;;;;;;30.01;54.16;100552.22;5570614;32;33985;-56
2023/06/21 12:49:15;;;;;;;13.32;11.93;;;;;;;29.98;54.35;100547.50;5570158;32;34480;-56
2023/06/21 12:52:25;;;;;;;21.62;13.18;;;;;;;29.97;54.02;100545.94;5569867;32;33666;-56
2023/06/21 12:55:27;;;;;;;17.12;12.50;;;;;;;30.03;52.07;100540.75;5570216;32;34318;-56
2023/06/21 12:58:30;;;;;;;13.70;11.82;;;;;;;30.07;51.64;100524.94;5569851;32;34389;-56
2023/06/21 13:01:34;;;;;;;16.85;12.15;;;;;;;30.09;50.40;100526.06;5570172;32;34467;-56
2023/06/21 13:04:45;;;;;;;13.40;12.02;;;;;;;30.17;50.53;100529.56;5569631;32;34771;-57
2023/06/21 13:07:47;;;;;;;15.77;12.48;;;;;;;30.16;50.29;100526.00;5568169;32;33620;-55
2023/06/21 13:11:00;;;;;;;13.15;11.48;;;;;;;30.19;50.33;100521.66;5569778;32;33761;-57
2023/06/21 13:14:04;;;;;;;14.05;11.32;;;;;;;30.22;49.46;100526.38;5569158;32;33719;-56
2023/06/21 13:17:07;;;;;;;11.68;10.48;;;;;;;30.26;48.06;100516.03;5569140;32;33627;-56
2023/06/21 13:20:10;;;;;;;16.20;11.50;;;;;;;30.26;49.59;100520.78;5568352;32;33770;-57
2023/06/21 13:23:13;;;;;;;13.27;11.05;;;;;;;30.27;49.71;100508.56;5569656;32;33605;-57
2023/06/21 13:26:16;;;;;;;17.25;10.85;;;;;;;30.30;50.01;100504.94;5562691;32;34309;-57
2023/06/21 13:29:18;;;;;;;14.93;10.70;;;;;;;30.31;48.88;100507.31;5554863;32;33579;-57
2023/06/21 13:32:21;;;;;;;23.12;11.00;;;;;;;30.40;49.32;100504.84;5565070;32;33701;-57
2023/06/21 13:35:23;;;;;;;33.50;11.60;;;;;;;30.48;48.54;100496.44;5556885;32;34504;-57
2023/06/21 13:38:26;;;;;;;18.52;12.07;;;;;;;30.56;48.74;100497.91;5551444;32;33719;-60
2023/06/21 13:41:28;;;;;;;15.25;11.60;;;;;;;30.50;48.89;100500.38;5568037;32;34293;-57
2023/06/21 13:44:31;;;;;;;28.58;12.27;;;;;;;30.51;48.60;100492.88;5568946;32;33967;-57
2023/06/21 13:47:33;;;;;;;21.52;10.63;;;;;;;30.50;50.02;100489.31;5568582;32;33890;-57
2023/06/21 13:50:36;;;;;;;16.92;10.50;;;;;;;30.53;48.73;100493.22;5569141;31;34237;-57
2023/06/21 13:53:38;;;;;;;11.40;10.30;;;;;;;30.58;47.87;100490.78;5569136;32;34414;-57
2023/06/21 13:56:40;;;;;;;13.48;10.23;;;;;;;30.59;47.00;100484.03;5568992;32;34247;-57
2023/06/21 13:59:47;;;;;;;18.42;10.90;;;;;;;30.61;47.63;100489.94;5569290;32;33348;-57
2023/06/21 14:02:53;;;;;;;15.75;10.27;;;;;;;30.67;47.81;100490.28;5569706;32;33704;-57
2023/06/21 14:05:55;;;;;;;13.68;10.70;;;;;;;30.69;47.41;100487.87;5569153;32;33482;-57
2023/06/21 14:08:58;;;;;;;12.68;9.93;;;;;;;30.64;48.06;100482.81;5569370;32;34226;-57
2023/06/21 14:12:00;;;;;;;19.40;10.75;;;;;;;30.71;47.60;100482.72;5568488;32;33690;-57
2023/06/21 14:15:03;;;;;;;28.52;10.65;;;;;;;30.65;47.91;100484.37;5569132;32;34491;-57
2023/06/21 14:18:07;;;;;;;12.05;10.27;;;;;;;30.64;48.40;100478.06;5568294;32;33172;-57
2023/06/21 14:21:11;;;;;;;17.95;10.48;;;;;;;30.62;48.66;100488.75;5569096;32;33705;-57
2023/06/21 14:24:14;;;;;;;13.23;10.23;;;;;;;30.59;47.82;100492.34;5569142;32;34442;-57
2023/06/21 14:27:16;;;;;;;12.90;10.00;;;;;;;30.67;48.11;100502.13;5568944;32;34431;-57
2023/06/21 14:30:19;;;;;;;16.85;9.27;;;;;;;30.63;49.03;100498.63;5569165;32;33724;-56
2023/06/21 14:33:21;;;;;;;18.05;10.15;;;;;;;30.60;47.86;100505.00;5567699;32;33707;-55
2023/06/21 14:36:23;;;;;;;16.67;9.05;;;;;;;30.65;47.61;100504.53;5568418;32;33624;-57
2023/06/21 14:39:26;;;;;;;12.50;9.38;;;;;;;30.70;46.29;100517.12;5569337;32;34275;-56
2023/06/21 14:42:28;;;;;;;12.52;9.40;;;;;;;30.68;45.90;100502.91;5569294;32;33816;-56
2023/06/21 14:45:30;;;;;;;13.52;9.10;;;;;;;30.62;46.60;100515.63;5568933;32;33768;-56
2023/06/21 14:48:34;;;;;;;11.98;8.95;;;;;;;30.68;46.10;100516.75;5568708;32;33623;-56
2023/06/21 14:51:36;;;;;;;11.88;10.00;;;;;;;30.64;46.47;100522.34;5568415;31;33776;-57
2023/06/21 14:54:39;;;;;;;11.52;10.32;;;;;;;30.49;47.60;100526.44;5567742;32;34211;-56
2023/06/21 14:57:41;;;;;;;16.00;10.27;;;;;;;30.48;49.03;100530.44;5569201;32;33678;-57
